sensor_id;sensor_type;location;lat;lon;timestamp;P1;durP1;ratioP1;P2;durP2;ratioP2
54745;SDS011;40640;48.130;11.356;2023-03-03T00:04:12;62.42;;;25.38;;
54745;SDS011;40640;48.130;11.356;2023-03-03T00:08:15;68.63;;;27.90;;
54745;SDS011;40640;48.130;11.356;2023-03-03T00:12:20;68.15;;;26.27;;
54745;SDS011;40640;48.130;11.356;2023-03-03T00:16:27;64.60;;;27.15;;
54745;SDS011;40640;48.130;11.356;2023-03-03T00:20:33;66.65;;;26.00;;
54745;SDS011;40640;48.130;11.356;2023-03-03T00:24:38;73.13;;;28.02;;
54745;SDS011;40640;48.130;11.356;2023-03-03T00:28:43;63.00;;;27.08;;
54745;SDS011;40640;48.130;11.356;2023-03-03T00:32:48;68.13;;;27.38;;
54745;SDS011;40640;48.130;11.356;2023-03-03T00:36:53;63.15;;;27.48;;
54745;SDS011;40640;48.130;11.356;2023-03-03T00:40:57;69.95;;;26.65;;
54745;SDS011;40640;48.130;11.356;2023-03-03T00:45:00;66.03;;;27.60;;
54745;SDS011;40640;48.130;11.356;2023-03-03T00:49:07;65.05;;;27.17;;
54745;SDS011;40640;48.130;11.356;2023-03-03T00:53:23;61.03;;;26.70;;
54745;SDS011;40640;48.130;11.356;2023-03-03T00:57:27;70.57;;;26.60;;
54745;SDS011;40640;48.130;11.356;2023-03-03T01:01:30;67.03;;;27.60;;
54745;SDS011;40640;48.130;11.356;2023-03-03T01:05:34;64.68;;;26.25;;
54745;SDS011;40640;48.130;11.356;2023-03-03T01:09:38;64.65;;;26.33;;
54745;SDS011;40640;48.130;11.356;2023-03-03T01:13:41;63.42;;;27.13;;
54745;SDS011;40640;48.130;11.356;2023-03-03T01:17:45;67.28;;;27.70;;
54745;SDS011;40640;48.130;11.356;2023-03-03T01:21:50;67.43;;;28.00;;
54745;SDS011;40640;48.130;11.356;2023-03-03T01:25:52;72.53;;;28.58;;
54745;SDS011;40640;48.130;11.356;2023-03-03T01:29:55;66.47;;;25.40;;
54745;SDS011;40640;48.130;11.356;2023-03-03T01:33:58;64.15;;;26.73;;
54745;SDS011;40640;48.130;11.356;2023-03-03T01:38:03;68.72;;;29.70;;
54745;SDS011;40640;48.130;11.356;2023-03-03T01:42:06;65.07;;;25.63;;
54745;SDS011;40640;48.130;11.356;2023-03-03T01:50:46;62.80;;;24.70;;
54745;SDS011;40640;48.130;11.356;2023-03-03T01:54:56;74.97;;;25.92;;
54745;SDS011;40640;48.130;11.356;2023-03-03T01:59:04;60.47;;;25.67;;
54745;SDS011;40640;48.130;11.356;2023-03-03T02:03:11;77.53;;;28.15;;
54745;SDS011;40640;48.130;11.356;2023-03-03T02:07:14;71.22;;;27.42;;
54745;SDS011;40640;48.130;11.356;2023-03-03T02:11:20;68.88;;;25.98;;
54745;SDS011;40640;48.130;11.356;2023-03-03T02:15:25;65.63;;;25.98;;
54745;SDS011;40640;48.130;11.356;2023-03-03T02:19:32;73.53;;;29.63;;
54745;SDS011;40640;48.130;11.356;2023-03-03T02:23:45;73.47;;;28.15;;
54745;SDS011;40640;48.130;11.356;2023-03-03T02:27:57;72.82;;;27.27;;
54745;SDS011;40640;48.130;11.356;2023-03-03T02:32:01;73.60;;;27.35;;
54745;SDS011;40640;48.130;11.356;2023-03-03T02:36:04;69.45;;;28.05;;
54745;SDS011;40640;48.130;11.356;2023-03-03T02:40:08;76.82;;;28.48;;
54745;SDS011;40640;48.130;11.356;2023-03-03T02:44:14;70.13;;;26.00;;
54745;SDS011;40640;48.130;11.356;2023-03-03T02:48:20;70.38;;;26.73;;
54745;SDS011;40640;48.130;11.356;2023-03-03T02:52:22;70.70;;;26.73;;
54745;SDS011;40640;48.130;11.356;2023-03-03T02:56:25;70.72;;;28.27;;
54745;SDS011;40640;48.130;11.356;2023-03-03T03:00:30;65.13;;;25.65;;
54745;SDS011;40640;48.130;11.356;2023-03-03T03:04:34;67.28;;;28.13;;
54745;SDS011;40640;48.130;11.356;2023-03-03T03:08:38;67.00;;;25.80;;
54745;SDS011;40640;48.130;11.356;2023-03-03T03:12:41;69.28;;;27.52;;
54745;SDS011;40640;48.130;11.356;2023-03-03T03:16:47;64.63;;;26.10;;
54745;SDS011;40640;48.130;11.356;2023-03-03T03:20:50;71.13;;;28.67;;
54745;SDS011;40640;48.130;11.356;2023-03-03T03:24:53;68.53;;;26.33;;
54745;SDS011;40640;48.130;11.356;2023-03-03T03:28:56;60.22;;;26.20;;
54745;SDS011;40640;48.130;11.356;2023-03-03T03:33:00;63.70;;;26.20;;
54745;SDS011;40640;48.130;11.356;2023-03-03T03:37:03;63.17;;;26.33;;
54745;SDS011;40640;48.130;11.356;2023-03-03T03:41:07;64.00;;;25.30;;
54745;SDS011;40640;48.130;11.356;2023-03-03T03:45:10;61.17;;;25.15;;
54745;SDS011;40640;48.130;11.356;2023-03-03T03:49:19;68.38;;;26.25;;
54745;SDS011;40640;48.130;11.356;2023-03-03T03:53:24;64.43;;;27.52;;
54745;SDS011;40640;48.130;11.356;2023-03-03T03:57:27;62.72;;;26.45;;
54745;SDS011;40640;48.130;11.356;2023-03-03T04:01:30;62.03;;;25.77;;
54745;SDS011;40640;48.130;11.356;2023-03-03T04:05:34;65.35;;;26.50;;
54745;SDS011;40640;48.130;11.356;2023-03-03T04:09:38;59.33;;;26.07;;
54745;SDS011;40640;48.130;11.356;2023-03-03T04:13:43;67.50;;;27.83;;
54745;SDS011;40640;48.130;11.356;2023-03-03T04:17:46;64.05;;;26.02;;
54745;SDS011;40640;48.130;11.356;2023-03-03T04:21:51;64.28;;;26.00;;
54745;SDS011;40640;48.130;11.356;2023-03-03T04:25:54;60.90;;;25.45;;
54745;SDS011;40640;48.130;11.356;2023-03-03T04:29:57;60.92;;;25.58;;
54745;SDS011;40640;48.130;11.356;2023-03-03T04:34:00;71.95;;;28.10;;
54745;SDS011;40640;48.130;11.356;2023-03-03T04:38:05;69.85;;;27.48;;
54745;SDS011;40640;48.130;11.356;2023-03-03T04:42:10;65.07;;;26.63;;
54745;SDS011;40640;48.130;11.356;2023-03-03T04:46:13;70.00;;;28.23;;
54745;SDS011;40640;48.130;11.356;2023-03-03T04:50:17;68.78;;;27.98;;
54745;SDS011;40640;48.130;11.356;2023-03-03T04:54:22;67.95;;;28.42;;
54745;SDS011;40640;48.130;11.356;2023-03-03T04:58:25;79.82;;;29.15;;
54745;SDS011;40640;48.130;11.356;2023-03-03T05:02:29;76.22;;;29.08;;
54745;SDS011;40640;48.130;11.356;2023-03-03T05:06:33;87.53;;;34.08;;
54745;SDS011;40640;48.130;11.356;2023-03-03T05:10:37;71.78;;;29.40;;
54745;SDS011;40640;48.130;11.356;2023-03-03T05:14:40;77.63;;;30.02;;
54745;SDS011;40640;48.130;11.356;2023-03-03T05:18:43;75.03;;;30.80;;
54745;SDS011;40640;48.130;11.356;2023-03-03T05:22:46;75.25;;;31.35;;
54745;SDS011;40640;48.130;11.356;2023-03-03T05:26:51;74.13;;;30.75;;
54745;SDS011;40640;48.130;11.356;2023-03-03T05:30:54;85.18;;;33.75;;
54745;SDS011;40640;48.130;11.356;2023-03-03T05:34:56;88.32;;;31.73;;
54745;SDS011;40640;48.130;11.356;2023-03-03T05:38:59;76.57;;;33.33;;
54745;SDS011;40640;48.130;11.356;2023-03-03T05:43:03;76.38;;;32.70;;
54745;SDS011;40640;48.130;11.356;2023-03-03T05:47:07;82.20;;;30.95;;
54745;SDS011;40640;48.130;11.356;2023-03-03T05:51:10;78.72;;;30.65;;
54745;SDS011;40640;48.130;11.356;2023-03-03T05:55:13;77.70;;;31.40;;
54745;SDS011;40640;48.130;11.356;2023-03-03T05:59:17;72.75;;;29.10;;
54745;SDS011;40640;48.130;11.356;2023-03-03T06:03:20;76.97;;;30.60;;
54745;SDS011;40640;48.130;11.356;2023-03-03T06:07:23;82.18;;;31.58;;
54745;SDS011;40640;48.130;11.356;2023-03-03T06:11:26;73.85;;;29.95;;
54745;SDS011;40640;48.130;11.356;2023-03-03T06:15:30;72.38;;;30.35;;
54745;SDS011;40640;48.130;11.356;2023-03-03T06:19:33;80.20;;;31.63;;
54745;SDS011;40640;48.130;11.356;2023-03-03T06:23:37;77.65;;;29.95;;
54745;SDS011;40640;48.130;11.356;2023-03-03T06:27:40;70.63;;;29.60;;
54745;SDS011;40640;48.130;11.356;2023-03-03T06:31:44;81.90;;;31.13;;
54745;SDS011;40640;48.130;11.356;2023-03-03T06:35:48;77.85;;;30.63;;
54745;SDS011;40640;48.130;11.356;2023-03-03T06:39:51;77.47;;;30.75;;
54745;SDS011;40640;48.130;11.356;2023-03-03T06:43:54;71.82;;;30.30;;
54745;SDS011;40640;48.130;11.356;2023-03-03T06:48:00;76.78;;;29.42;;
54745;SDS011;40640;48.130;11.356;2023-03-03T06:52:08;76.97;;;30.75;;
54745;SDS011;40640;48.130;11.356;2023-03-03T06:56:13;78.75;;;30.38;;
54745;SDS011;40640;48.130;11.356;2023-03-03T07:00:16;75.95;;;30.52;;
54745;SDS011;40640;48.130;11.356;2023-03-03T07:04:25;75.55;;;31.60;;
54745;SDS011;40640;48.130;11.356;2023-03-03T07:08:31;74.93;;;31.05;;
54745;SDS011;40640;48.130;11.356;2023-03-03T07:12:34;78.28;;;31.70;;
54745;SDS011;40640;48.130;11.356;2023-03-03T07:16:37;80.25;;;31.58;;
54745;SDS011;40640;48.130;11.356;2023-03-03T07:20:41;76.55;;;31.17;;
54745;SDS011;40640;48.130;11.356;2023-03-03T07:24:45;80.80;;;32.03;;
54745;SDS011;40640;48.130;11.356;2023-03-03T07:28:53;76.72;;;29.40;;
54745;SDS011;40640;48.130;11.356;2023-03-03T07:32:57;73.07;;;30.40;;
54745;SDS011;40640;48.130;11.356;2023-03-03T07:37:03;76.05;;;31.27;;
54745;SDS011;40640;48.130;11.356;2023-03-03T07:41:13;74.80;;;31.88;;
54745;SDS011;40640;48.130;11.356;2023-03-03T07:45:22;76.35;;;31.20;;
54745;SDS011;40640;48.130;11.356;2023-03-03T07:49:29;73.07;;;30.85;;
54745;SDS011;40640;48.130;11.356;2023-03-03T07:53:37;79.80;;;33.40;;
54745;SDS011;40640;48.130;11.356;2023-03-03T07:57:40;79.35;;;30.58;;
54745;SDS011;40640;48.130;11.356;2023-03-03T08:01:43;80.93;;;32.05;;
54745;SDS011;40640;48.130;11.356;2023-03-03T08:05:50;71.55;;;30.85;;
54745;SDS011;40640;48.130;11.356;2023-03-03T08:09:56;79.30;;;32.30;;
54745;SDS011;40640;48.130;11.356;2023-03-03T08:14:01;73.32;;;32.55;;
54745;SDS011;40640;48.130;11.356;2023-03-03T08:18:15;81.50;;;32.70;;
54745;SDS011;40640;48.130;11.356;2023-03-03T08:22:24;74.32;;;32.50;;
54745;SDS011;40640;48.130;11.356;2023-03-03T08:26:34;75.35;;;32.08;;
54745;SDS011;40640;48.130;11.356;2023-03-03T08:30:37;77.22;;;32.97;;
54745;SDS011;40640;48.130;11.356;2023-03-03T08:34:40;77.20;;;33.47;;
54745;SDS011;40640;48.130;11.356;2023-03-03T08:38:42;69.13;;;29.63;;
54745;SDS011;40640;48.130;11.356;2023-03-03T08:42:47;74.22;;;30.15;;
54745;SDS011;40640;48.130;11.356;2023-03-03T08:46:50;77.65;;;32.42;;
54745;SDS011;40640;48.130;11.356;2023-03-03T08:50:53;76.45;;;32.20;;
54745;SDS011;40640;48.130;11.356;2023-03-03T08:54:56;69.43;;;31.10;;
54745;SDS011;40640;48.130;11.356;2023-03-03T08:59:00;64.78;;;29.55;;
54745;SDS011;40640;48.130;11.356;2023-03-03T09:03:03;68.00;;;31.48;;
54745;SDS011;40640;48.130;11.356;2023-03-03T09:07:07;66.10;;;31.42;;
54745;SDS011;40640;48.130;11.356;2023-03-03T09:11:10;68.10;;;30.95;;
54745;SDS011;40640;48.130;11.356;2023-03-03T09:15:18;68.63;;;31.80;;
54745;SDS011;40640;48.130;11.356;2023-03-03T09:19:24;80.40;;;32.80;;
54745;SDS011;40640;48.130;11.356;2023-03-03T09:23:30;62.97;;;30.42;;
54745;SDS011;40640;48.130;11.356;2023-03-03T09:31:41;61.20;;;30.40;;
54745;SDS011;40640;48.130;11.356;2023-03-03T09:35:46;64.65;;;32.92;;
54745;SDS011;40640;48.130;11.356;2023-03-03T09:39:53;59.92;;;32.00;;
54745;SDS011;40640;48.130;11.356;2023-03-03T09:44:08;65.07;;;32.42;;
54745;SDS011;40640;48.130;11.356;2023-03-03T09:48:40;65.63;;;32.20;;
54745;SDS011;40640;48.130;11.356;2023-03-03T09:52:51;63.75;;;32.40;;
54745;SDS011;40640;48.130;11.356;2023-03-03T09:57:02;63.88;;;31.10;;
54745;SDS011;40640;48.130;11.356;2023-03-03T10:01:25;61.90;;;31.15;;
54745;SDS011;40640;48.130;11.356;2023-03-03T10:05:40;71.07;;;33.67;;
54745;SDS011;40640;48.130;11.356;2023-03-03T10:09:54;61.70;;;32.75;;
54745;SDS011;40640;48.130;11.356;2023-03-03T10:14:10;63.60;;;32.63;;
54745;SDS011;40640;48.130;11.356;2023-03-03T10:18:27;69.43;;;32.45;;
54745;SDS011;40640;48.130;11.356;2023-03-03T10:22:37;65.88;;;32.58;;
54745;SDS011;40640;48.130;11.356;2023-03-03T10:26:52;68.35;;;33.25;;
54745;SDS011;40640;48.130;11.356;2023-03-03T10:31:15;69.93;;;31.92;;
54745;SDS011;40640;48.130;11.356;2023-03-03T10:35:31;64.35;;;33.25;;
54745;SDS011;40640;48.130;11.356;2023-03-03T10:39:48;68.45;;;31.65;;
54745;SDS011;40640;48.130;11.356;2023-03-03T10:44:07;62.70;;;32.15;;
54745;SDS011;40640;48.130;11.356;2023-03-03T10:48:32;70.13;;;32.58;;
54745;SDS011;40640;48.130;11.356;2023-03-03T10:52:53;68.15;;;32.45;;
54745;SDS011;40640;48.130;11.356;2023-03-03T10:57:13;76.68;;;33.47;;
54745;SDS011;40640;48.130;11.356;2023-03-03T11:01:25;62.58;;;31.15;;
54745;SDS011;40640;48.130;11.356;2023-03-03T11:05:38;64.50;;;32.05;;
54745;SDS011;40640;48.130;11.356;2023-03-03T11:10:00;62.08;;;32.28;;
54745;SDS011;40640;48.130;11.356;2023-03-03T11:14:18;70.30;;;33.20;;
54745;SDS011;40640;48.130;11.356;2023-03-03T11:18:29;64.47;;;33.22;;
54745;SDS011;40640;48.130;11.356;2023-03-03T11:22:39;61.08;;;31.85;;
54745;SDS011;40640;48.130;11.356;2023-03-03T11:26:50;62.97;;;33.05;;
54745;SDS011;40640;48.130;11.356;2023-03-03T11:31:08;70.32;;;34.42;;
54745;SDS011;40640;48.130;11.356;2023-03-03T11:35:21;65.25;;;32.80;;
54745;SDS011;40640;48.130;11.356;2023-03-03T11:39:28;71.28;;;33.45;;
54745;SDS011;40640;48.130;11.356;2023-03-03T11:43:31;68.78;;;32.28;;
54745;SDS011;40640;48.130;11.356;2023-03-03T11:47:43;70.80;;;33.33;;
54745;SDS011;40640;48.130;11.356;2023-03-03T11:51:54;70.20;;;33.45;;
54745;SDS011;40640;48.130;11.356;2023-03-03T11:56:09;60.65;;;32.45;;
54745;SDS011;40640;48.130;11.356;2023-03-03T12:00:24;59.33;;;31.20;;
54745;SDS011;40640;48.130;11.356;2023-03-03T12:04:34;65.10;;;31.63;;
54745;SDS011;40640;48.130;11.356;2023-03-03T12:08:55;60.42;;;31.50;;
54745;SDS011;40640;48.130;11.356;2023-03-03T12:13:12;63.90;;;32.97;;
54745;SDS011;40640;48.130;11.356;2023-03-03T12:17:26;60.20;;;31.30;;
54745;SDS011;40640;48.130;11.356;2023-03-03T12:21:45;60.93;;;32.73;;
54745;SDS011;40640;48.130;11.356;2023-03-03T12:25:59;63.97;;;33.85;;
54745;SDS011;40640;48.130;11.356;2023-03-03T12:30:10;66.82;;;32.95;;
54745;SDS011;40640;48.130;11.356;2023-03-03T12:34:23;59.25;;;31.52;;
54745;SDS011;40640;48.130;11.356;2023-03-03T12:38:37;58.83;;;31.05;;
54745;SDS011;40640;48.130;11.356;2023-03-03T12:42:48;59.55;;;32.47;;
54745;SDS011;40640;48.130;11.356;2023-03-03T12:46:59;63.38;;;32.55;;
54745;SDS011;40640;48.130;11.356;2023-03-03T12:51:10;62.80;;;32.40;;
54745;SDS011;40640;48.130;11.356;2023-03-03T12:55:23;64.93;;;31.15;;
54745;SDS011;40640;48.130;11.356;2023-03-03T12:59:35;60.17;;;30.52;;
54745;SDS011;40640;48.130;11.356;2023-03-03T13:03:45;60.30;;;31.48;;
54745;SDS011;40640;48.130;11.356;2023-03-03T13:08:00;61.47;;;32.78;;
54745;SDS011;40640;48.130;11.356;2023-03-03T13:12:30;63.40;;;30.80;;
54745;SDS011;40640;48.130;11.356;2023-03-03T13:16:40;54.00;;;29.77;;
54745;SDS011;40640;48.130;11.356;2023-03-03T13:20:48;52.03;;;30.95;;
54745;SDS011;40640;48.130;11.356;2023-03-03T13:24:56;57.33;;;32.88;;
54745;SDS011;40640;48.130;11.356;2023-03-03T13:29:10;52.88;;;32.20;;
54745;SDS011;40640;48.130;11.356;2023-03-03T13:33:22;64.95;;;33.53;;
54745;SDS011;40640;48.130;11.356;2023-03-03T13:37:28;64.30;;;33.00;;
54745;SDS011;40640;48.130;11.356;2023-03-03T13:41:36;57.20;;;32.60;;
54745;SDS011;40640;48.130;11.356;2023-03-03T13:45:53;63.85;;;33.20;;
54745;SDS011;40640;48.130;11.356;2023-03-03T13:50:13;61.35;;;33.85;;
54745;SDS011;40640;48.130;11.356;2023-03-03T13:54:30;60.63;;;30.67;;
54745;SDS011;40640;48.130;11.356;2023-03-03T13:58:53;61.42;;;33.17;;
54745;SDS011;40640;48.130;11.356;2023-03-03T14:03:12;59.50;;;30.00;;
54745;SDS011;40640;48.130;11.356;2023-03-03T14:07:27;57.63;;;31.45;;
54745;SDS011;40640;48.130;11.356;2023-03-03T14:11:37;64.53;;;32.13;;
54745;SDS011;40640;48.130;11.356;2023-03-03T14:15:48;56.20;;;31.02;;
54745;SDS011;40640;48.130;11.356;2023-03-03T14:20:00;57.13;;;31.05;;
54745;SDS011;40640;48.130;11.356;2023-03-03T14:24:14;56.85;;;29.98;;
54745;SDS011;40640;48.130;11.356;2023-03-03T14:28:19;53.67;;;28.63;;
54745;SDS011;40640;48.130;11.356;2023-03-03T14:32:24;58.22;;;28.23;;
54745;SDS011;40640;48.130;11.356;2023-03-03T14:36:46;52.67;;;27.02;;
54745;SDS011;40640;48.130;11.356;2023-03-03T14:41:02;44.67;;;27.63;;
54745;SDS011;40640;48.130;11.356;2023-03-03T14:49:34;56.67;;;28.03;;
54745;SDS011;40640;48.130;11.356;2023-03-03T14:53:41;53.83;;;29.17;;
54745;SDS011;40640;48.130;11.356;2023-03-03T14:57:45;48.53;;;28.00;;
54745;SDS011;40640;48.130;11.356;2023-03-03T15:01:50;49.83;;;27.98;;
54745;SDS011;40640;48.130;11.356;2023-03-03T15:05:59;51.35;;;28.20;;
54745;SDS011;40640;48.130;11.356;2023-03-03T15:10:04;50.92;;;29.25;;
54745;SDS011;40640;48.130;11.356;2023-03-03T15:14:09;58.93;;;29.87;;
54745;SDS011;40640;48.130;11.356;2023-03-03T15:18:15;53.28;;;27.45;;
54745;SDS011;40640;48.130;11.356;2023-03-03T15:22:20;50.33;;;28.15;;
54745;SDS011;40640;48.130;11.356;2023-03-03T15:26:33;50.78;;;27.25;;
54745;SDS011;40640;48.130;11.356;2023-03-03T15:30:45;59.17;;;29.17;;
54745;SDS011;40640;48.130;11.356;2023-03-03T15:34:56;55.88;;;28.80;;
54745;SDS011;40640;48.130;11.356;2023-03-03T15:39:12;58.50;;;28.10;;
54745;SDS011;40640;48.130;11.356;2023-03-03T15:43:25;61.35;;;29.73;;
54745;SDS011;40640;48.130;11.356;2023-03-03T15:47:33;57.83;;;29.42;;
54745;SDS011;40640;48.130;11.356;2023-03-03T15:51:49;61.53;;;30.70;;
54745;SDS011;40640;48.130;11.356;2023-03-03T15:56:10;60.15;;;30.02;;
54745;SDS011;40640;48.130;11.356;2023-03-03T16:00:25;62.10;;;30.85;;
54745;SDS011;40640;48.130;11.356;2023-03-03T16:04:40;60.67;;;30.25;;
54745;SDS011;40640;48.130;11.356;2023-03-03T16:08:51;58.20;;;29.73;;
54745;SDS011;40640;48.130;11.356;2023-03-03T16:13:01;60.70;;;30.63;;
54745;SDS011;40640;48.130;11.356;2023-03-03T16:17:25;66.93;;;29.38;;
54745;SDS011;40640;48.130;11.356;2023-03-03T16:21:38;64.57;;;30.90;;
54745;SDS011;40640;48.130;11.356;2023-03-03T16:25:57;65.60;;;31.10;;
54745;SDS011;40640;48.130;11.356;2023-03-03T16:30:10;58.25;;;28.90;;
54745;SDS011;40640;48.130;11.356;2023-03-03T16:34:31;56.30;;;29.42;;
54745;SDS011;40640;48.130;11.356;2023-03-03T16:38:39;68.20;;;31.63;;
54745;SDS011;40640;48.130;11.356;2023-03-03T16:42:45;80.50;;;34.55;;
54745;SDS011;40640;48.130;11.356;2023-03-03T16:46:52;79.15;;;35.40;;
54745;SDS011;40640;48.130;11.356;2023-03-03T16:51:15;71.43;;;33.63;;
54745;SDS011;40640;48.130;11.356;2023-03-03T16:55:29;64.93;;;30.65;;
54745;SDS011;40640;48.130;11.356;2023-03-03T17:04:05;69.68;;;30.58;;
54745;SDS011;40640;48.130;11.356;2023-03-03T17:08:25;67.55;;;32.83;;
54745;SDS011;40640;48.130;11.356;2023-03-03T17:12:46;70.78;;;32.65;;
54745;SDS011;40640;48.130;11.356;2023-03-03T17:17:13;68.65;;;31.52;;
54745;SDS011;40640;48.130;11.356;2023-03-03T17:21:31;68.07;;;32.25;;
54745;SDS011;40640;48.130;11.356;2023-03-03T17:25:43;83.28;;;38.97;;
54745;SDS011;40640;48.130;11.356;2023-03-03T17:29:55;75.78;;;34.45;;
54745;SDS011;40640;48.130;11.356;2023-03-03T17:34:07;89.78;;;38.50;;
54745;SDS011;40640;48.130;11.356;2023-03-03T17:38:21;75.68;;;36.58;;
54745;SDS011;40640;48.130;11.356;2023-03-03T17:42:36;76.72;;;33.88;;
54745;SDS011;40640;48.130;11.356;2023-03-03T17:46:44;91.63;;;43.70;;
54745;SDS011;40640;48.130;11.356;2023-03-03T17:50:55;88.68;;;40.70;;
54745;SDS011;40640;48.130;11.356;2023-03-03T17:55:14;108.05;;;47.85;;
54745;SDS011;40640;48.130;11.356;2023-03-03T17:59:41;95.85;;;41.47;;
54745;SDS011;40640;48.130;11.356;2023-03-03T18:04:06;86.40;;;38.75;;
54745;SDS011;40640;48.130;11.356;2023-03-03T18:13:25;99.28;;;41.10;;
54745;SDS011;40640;48.130;11.356;2023-03-03T18:22:06;95.80;;;41.60;;
54745;SDS011;40640;48.130;11.356;2023-03-03T18:30:54;103.63;;;42.30;;
54745;SDS011;40640;48.130;11.356;2023-03-03T18:39:36;87.18;;;38.03;;
54745;SDS011;40640;48.130;11.356;2023-03-03T18:43:52;84.28;;;37.80;;
54745;SDS011;40640;48.130;11.356;2023-03-03T18:47:58;87.50;;;36.30;;
54745;SDS011;40640;48.130;11.356;2023-03-03T18:52:15;77.85;;;32.92;;
54745;SDS011;40640;48.130;11.356;2023-03-03T18:56:39;82.03;;;34.08;;
54745;SDS011;40640;48.130;11.356;2023-03-03T19:00:46;82.90;;;34.50;;
54745;SDS011;40640;48.130;11.356;2023-03-03T19:04:51;87.20;;;36.73;;
54745;SDS011;40640;48.130;11.356;2023-03-03T19:08:57;84.88;;;36.85;;
54745;SDS011;40640;48.130;11.356;2023-03-03T19:13:00;81.00;;;35.92;;
54745;SDS011;40640;48.130;11.356;2023-03-03T19:21:40;90.27;;;36.17;;
54745;SDS011;40640;48.130;11.356;2023-03-03T19:25:46;85.90;;;36.40;;
54745;SDS011;40640;48.130;11.356;2023-03-03T19:34:49;93.78;;;38.78;;
54745;SDS011;40640;48.130;11.356;2023-03-03T19:39:01;97.28;;;39.20;;
54745;SDS011;40640;48.130;11.356;2023-03-03T19:43:28;97.70;;;41.17;;
54745;SDS011;40640;48.130;11.356;2023-03-03T19:47:39;101.07;;;40.17;;
54745;SDS011;40640;48.130;11.356;2023-03-03T19:51:49;100.30;;;40.05;;
54745;SDS011;40640;48.130;11.356;2023-03-03T19:56:07;92.88;;;39.65;;
54745;SDS011;40640;48.130;11.356;2023-03-03T20:04:28;104.57;;;39.80;;
54745;SDS011;40640;48.130;11.356;2023-03-03T20:08:42;92.15;;;38.83;;
54745;SDS011;40640;48.130;11.356;2023-03-03T20:13:00;89.00;;;36.63;;
54745;SDS011;40640;48.130;11.356;2023-03-03T20:17:28;93.40;;;36.65;;
54745;SDS011;40640;48.130;11.356;2023-03-03T20:22:01;89.35;;;35.95;;
54745;SDS011;40640;48.130;11.356;2023-03-03T20:26:11;85.97;;;36.92;;
54745;SDS011;40640;48.130;11.356;2023-03-03T20:30:27;97.72;;;37.05;;
54745;SDS011;40640;48.130;11.356;2023-03-03T20:34:49;106.28;;;38.40;;
54745;SDS011;40640;48.130;11.356;2023-03-03T20:43:11;97.75;;;37.15;;
54745;SDS011;40640;48.130;11.356;2023-03-03T20:47:26;100.10;;;37.20;;
54745;SDS011;40640;48.130;11.356;2023-03-03T20:51:40;107.90;;;38.88;;
54745;SDS011;40640;48.130;11.356;2023-03-03T20:55:50;98.30;;;37.78;;
54745;SDS011;40640;48.130;11.356;2023-03-03T21:00:01;99.22;;;40.53;;
54745;SDS011;40640;48.130;11.356;2023-03-03T21:04:15;98.95;;;38.80;;
54745;SDS011;40640;48.130;11.356;2023-03-03T21:08:20;104.55;;;42.33;;
54745;SDS011;40640;48.130;11.356;2023-03-03T21:12:41;105.28;;;40.83;;
54745;SDS011;40640;48.130;11.356;2023-03-03T21:16:44;108.00;;;40.35;;
54745;SDS011;40640;48.130;11.356;2023-03-03T21:20:47;98.95;;;39.58;;
54745;SDS011;40640;48.130;11.356;2023-03-03T21:24:52;101.75;;;41.13;;
54745;SDS011;40640;48.130;11.356;2023-03-03T21:28:59;106.78;;;40.53;;
54745;SDS011;40640;48.130;11.356;2023-03-03T21:33:04;114.97;;;43.22;;
54745;SDS011;40640;48.130;11.356;2023-03-03T21:37:07;112.65;;;41.15;;
54745;SDS011;40640;48.130;11.356;2023-03-03T21:41:12;93.55;;;39.50;;
54745;SDS011;40640;48.130;11.356;2023-03-03T21:45:17;109.05;;;40.63;;
54745;SDS011;40640;48.130;11.356;2023-03-03T21:49:20;106.47;;;42.33;;
54745;SDS011;40640;48.130;11.356;2023-03-03T21:53:23;108.97;;;40.65;;
54745;SDS011;40640;48.130;11.356;2023-03-03T21:57:28;115.00;;;42.47;;
54745;SDS011;40640;48.130;11.356;2023-03-03T22:01:31;105.95;;;40.10;;
54745;SDS011;40640;48.130;11.356;2023-03-03T22:05:34;95.22;;;39.05;;
54745;SDS011;40640;48.130;11.356;2023-03-03T22:09:37;103.88;;;39.83;;
54745;SDS011;40640;48.130;11.356;2023-03-03T22:13:41;99.28;;;39.40;;
54745;SDS011;40640;48.130;11.356;2023-03-03T22:17:44;110.15;;;41.33;;
54745;SDS011;40640;48.130;11.356;2023-03-03T22:21:47;106.15;;;42.05;;
54745;SDS011;40640;48.130;11.356;2023-03-03T22:25:50;120.82;;;41.45;;
54745;SDS011;40640;48.130;11.356;2023-03-03T22:29:54;123.57;;;43.97;;
54745;SDS011;40640;48.130;11.356;2023-03-03T22:33:57;125.97;;;43.17;;
54745;SDS011;40640;48.130;11.356;2023-03-03T22:38:00;109.88;;;41.08;;
54745;SDS011;40640;48.130;11.356;2023-03-03T22:42:03;113.57;;;43.13;;
54745;SDS011;40640;48.130;11.356;2023-03-03T22:46:08;118.05;;;43.22;;
54745;SDS011;40640;48.130;11.356;2023-03-03T22:50:12;110.85;;;42.20;;
54745;SDS011;40640;48.130;11.356;2023-03-03T22:54:17;110.57;;;43.00;;
54745;SDS011;40640;48.130;11.356;2023-03-03T22:58:20;120.28;;;43.53;;
54745;SDS011;40640;48.130;11.356;2023-03-03T23:02:27;105.15;;;41.85;;
54745;SDS011;40640;48.130;11.356;2023-03-03T23:06:30;115.13;;;41.65;;
54745;SDS011;40640;48.130;11.356;2023-03-03T23:10:32;108.38;;;42.05;;
54745;SDS011;40640;48.130;11.356;2023-03-03T23:14:35;123.43;;;45.00;;
54745;SDS011;40640;48.130;11.356;2023-03-03T23:18:40;124.57;;;44.88;;
54745;SDS011;40640;48.130;11.356;2023-03-03T23:22:44;134.35;;;44.47;;
54745;SDS011;40640;48.130;11.356;2023-03-03T23:26:47;119.63;;;44.70;;
54745;SDS011;40640;48.130;11.356;2023-03-03T23:30:52;110.70;;;41.42;;
54745;SDS011;40640;48.130;11.356;2023-03-03T23:34:56;132.32;;;44.70;;
54745;SDS011;40640;48.130;11.356;2023-03-03T23:38:58;117.63;;;41.72;;
54745;SDS011;40640;48.130;11.356;2023-03-03T23:43:01;115.78;;;42.97;;
54745;SDS011;40640;48.130;11.356;2023-03-03T23:47:04;117.03;;;42.42;;
54745;SDS011;40640;48.130;11.356;2023-03-03T23:51:09;99.72;;;38.28;;
54745;SDS011;40640;48.130;11.356;2023-03-03T23:55:11;117.03;;;43.30;;
54745;SDS011;40640;48.130;11.356;2023-03-03T23:59:14;112.93;;;41.58;;
